»·PEaware :: FFT250 KLAX-KPHX

FFT250 :: KLAX-KPHX

FLIGHT INFORMATION

Flight Status: Arrived
Operator:
Frontier Airlines
More flights by this operator :: More flights under this callsign
Pilot: Andrew J. (13363)
Aircraft: AIRBUS A320
(A320)
More flights by this aircraft type
Origin: KLAX Los Angeles Intl
United States
Destination: KPHX Phoenix Sky Harbor Intl
United States
More flights between these airports :: More routes between these airports
Route: +DOTSS2 CNERY BLH HYDRR1
File this flight plan on PilotEdge
Remarks: RMK / SIMBRIEF
Altitude:
(Current/Filed)
39,000ft
Speed:
(Current/Filed)
447kts
Departed: 25-Aug-20 07:29 PM
Arrived: 25-Aug-20 08:26 PM
Distance/Time
Traveled:
321nm/0:57
Distance/Time
To Go:
Arrived

Flight Plot

Page will automatically refresh every two minutes.

Flight plan parsing failed; only flown route is shown


Map Options




Map Legend


Flown Route
Filed Route
Departure Airport
Arrival Airport
Navaid (VOR, NDB)
Fix

Horizontal Profiles

Position Reports

Time Latitude Longitude Heading Altitude Ground
Speed
25-Aug-20 18:51 33.941512 -118.405004 81 129ft 0kts
25-Aug-20 18:52 33.941512 -118.405004 81 129ft 0kts
25-Aug-20 18:53 33.941512 -118.405004 81 129ft 0kts
25-Aug-20 18:54 33.941512 -118.405004 81 129ft 0kts
25-Aug-20 18:55 33.941512 -118.405004 81 129ft 0kts
25-Aug-20 18:56 33.941512 -118.405004 81 129ft 0kts
25-Aug-20 18:57 33.941512 -118.405004 81 129ft 0kts
25-Aug-20 18:58 33.941512 -118.405004 81 129ft 0kts
25-Aug-20 18:59 33.941512 -118.405004 81 129ft 0kts
25-Aug-20 19:00 33.941512 -118.405004 81 129ft 0kts
25-Aug-20 19:01 33.941512 -118.405004 81 129ft 0kts
25-Aug-20 19:02 33.941512 -118.405004 81 129ft 0kts
25-Aug-20 19:03 33.941512 -118.405004 81 129ft 0kts
25-Aug-20 19:04 33.941512 -118.405004 81 129ft 0kts
25-Aug-20 19:05 33.941512 -118.405004 81 129ft 0kts
25-Aug-20 19:06 33.941512 -118.405004 81 129ft 0kts
25-Aug-20 19:07 33.941512 -118.405004 81 129ft 0kts
25-Aug-20 19:08 33.941512 -118.405004 81 129ft 0kts
25-Aug-20 19:09 33.941512 -118.405004 81 129ft 0kts
25-Aug-20 19:11 33.941512 -118.405004 81 129ft 0kts
25-Aug-20 19:12 33.941512 -118.405004 81 129ft 0kts
25-Aug-20 19:13 33.941512 -118.405004 81 129ft 0kts
25-Aug-20 19:14 33.941512 -118.405004 81 129ft 0kts
25-Aug-20 19:15 33.941512 -118.405004 81 129ft 0kts
25-Aug-20 19:16 33.941512 -118.405004 81 129ft 0kts
25-Aug-20 19:17 33.941511 -118.405014 82 129ft 1kts
25-Aug-20 19:18 33.941602 -118.405674 148 129ft 2kts
25-Aug-20 19:19 33.941779 -118.405737 173 129ft 0kts
25-Aug-20 19:20 33.941779 -118.405737 173 129ft 0kts
25-Aug-20 19:21 33.941779 -118.405737 173 129ft 0kts
25-Aug-20 19:22 33.941757 -118.405734 173 129ft 0kts
25-Aug-20 19:23 33.940391 -118.405532 173 130ft 7kts
25-Aug-20 19:24 33.938278 -118.404721 80 130ft 9kts
25-Aug-20 19:25 33.938814 -118.399668 83 122ft 22kts
25-Aug-20 19:26 33.939726 -118.390681 83 110ft 29kts
25-Aug-20 19:27 33.940710 -118.381075 83 104ft 23kts
25-Aug-20 19:27 33.940630 -118.380066 147 104ft 6kts
25-Aug-20 19:29 33.939286 -118.385447 262 107ft 103kts
25-Aug-20 19:30 33.934032 -118.440950 262 2662ft 194kts
25-Aug-20 19:31 33.900824 -118.506262 229 5475ft 264kts
25-Aug-20 19:31 33.857176 -118.557290 198 8816ft 270kts
25-Aug-20 19:32 33.778867 -118.543625 169 11658ft 316kts
25-Aug-20 19:34 33.687593 -118.489033 117 15228ft 350kts
25-Aug-20 19:34 33.659743 -118.395098 112 17514ft 364kts
25-Aug-20 19:35 33.644481 -118.272890 92 19961ft 385kts
25-Aug-20 19:36 33.644675 -118.142776 92 22158ft 398kts
25-Aug-20 19:37 33.644592 -118.007732 92 24118ft 411kts
25-Aug-20 19:38 33.644275 -117.864338 92 25071ft 443kts
25-Aug-20 19:39 33.625372 -117.718664 109 26536ft 447kts
25-Aug-20 19:40 33.589703 -117.574280 109 27925ft 456kts
25-Aug-20 19:41 33.553272 -117.427342 109 29177ft 464kts
25-Aug-20 19:42 33.516367 -117.279340 109 30282ft 471kts
25-Aug-20 19:43 33.503317 -117.121281 93 31330ft 482kts
25-Aug-20 19:44 33.501238 -116.963053 93 32865ft 470kts
25-Aug-20 19:45 33.498875 -116.807338 92 34138ft 464kts
25-Aug-20 19:46 33.496332 -116.653355 92 35105ft 462kts
25-Aug-20 19:47 33.493623 -116.500037 92 36032ft 459kts
25-Aug-20 19:48 33.491076 -116.347898 92 36805ft 458kts
25-Aug-20 19:49 33.488770 -116.195356 92 37429ft 458kts
25-Aug-20 19:50 33.488152 -116.043905 84 37961ft 460kts
25-Aug-20 19:51 33.526093 -115.897491 72 38395ft 464kts
25-Aug-20 19:52 33.568645 -115.751766 72 38673ft 464kts
25-Aug-20 19:53 33.611023 -115.605731 72 38674ft 464kts
25-Aug-20 19:54 33.622822 -115.455109 104 38675ft 457kts
25-Aug-20 19:55 33.611049 -115.303107 93 38690ft 458kts
25-Aug-20 19:56 33.607055 -115.150848 93 38697ft 457kts
25-Aug-20 19:57 33.602919 -114.998618 93 38715ft 455kts
25-Aug-20 19:58 33.598636 -114.847591 93 38078ft 454kts
25-Aug-20 19:59 33.583931 -114.698429 104 35444ft 448kts
25-Aug-20 20:00 33.555332 -114.551369 104 32338ft 460kts
25-Aug-20 20:01 33.525726 -114.400122 103 28876ft 472kts
25-Aug-20 20:02 33.496150 -114.250006 104 25798ft 469kts
25-Aug-20 20:03 33.467500 -114.105160 104 24842ft 421kts
25-Aug-20 20:04 33.440463 -113.970363 104 23725ft 436kts
25-Aug-20 20:05 33.412642 -113.832004 104 23074ft 410kts
25-Aug-20 20:06 33.386241 -113.701115 104 22114ft 400kts
25-Aug-20 20:07 33.360168 -113.572772 104 21174ft 395kts
25-Aug-20 20:08 33.334640 -113.445509 102 19707ft 391kts
25-Aug-20 20:09 33.312987 -113.319670 102 17738ft 375kts
25-Aug-20 20:10 33.293353 -113.201398 100 15869ft 368kts
25-Aug-20 20:11 33.276318 -113.082739 99 15067ft 341kts
25-Aug-20 20:12 33.276926 -112.971559 88 13509ft 331kts
25-Aug-20 20:13 33.279599 -112.862378 88 11956ft 323kts
25-Aug-20 20:14 33.301947 -112.764356 64 10785ft 304kts
25-Aug-20 20:15 33.335146 -112.676007 63 9962ft 279kts
25-Aug-20 20:16 33.366963 -112.592863 63 8812ft 271kts
25-Aug-20 20:17 33.397472 -112.512817 63 8068ft 251kts
25-Aug-20 20:18 33.424255 -112.436569 70 7161ft 253kts
25-Aug-20 20:19 33.429859 -112.349697 89 6163ft 266kts
25-Aug-20 20:20 33.429244 -112.262653 87 5003ft 249kts
25-Aug-20 20:21 33.429113 -112.183269 88 3640ft 227kts
25-Aug-20 20:22 33.428970 -112.112527 89 2528ft 187kts
25-Aug-20 20:23 33.428907 -112.059177 89 1658ft 136kts
25-Aug-20 20:24 33.428866 -112.015166 90 1122ft 94kts
25-Aug-20 20:25 33.429847 -112.006926 57 1125ft 0kts
25-Aug-20 20:26 33.432058 -112.006308 312 1128ft 6kts
25-Aug-20 20:27 33.433103 -112.007580 0 1128ft 7kts
25-Aug-20 20:28 33.434502 -112.007943 260 1128ft 0kts
25-Aug-20 20:29 33.434467 -112.008260 263 1128ft 0kts
25-Aug-20 20:30 33.434467 -112.008260 263 1128ft 0kts
25-Aug-20 20:31 33.434467 -112.008260 263 1128ft 0kts
25-Aug-20 20:32 33.434467 -112.008260 263 1128ft 0kts
25-Aug-20 20:33 33.434467 -112.008260 263 1128ft 0kts

Navigation Log

Ident Type
Flight plan parsing failed, navigation log unavailable